Flight Briefing for CPX222

Departure Arrival
Seattle-Tacoma International Airport (KSEA)
Click to view FAA NOTAMS
Sacramento International Airport (KSMF)
Click to view FAA NOTAMS
Departure Time Arrival Time
N/A N/A
Aircraft Distance
B767-300BDSF 527nm
Departure METAR Arrival METAR
KSEA 152053Z 19012KT 10SM FEW020 BKN043 BKN075 07/03 A2965 RMK AO2 SLP047 T00720033 51020 KSMF 152053Z 22013KT 10SM FEW035 SCT055 BKN080 09/05 A2997 RMK AO2 SLP149 60011 T00940050 58001 $
Suggested Route
SUMMA1 SUMMA JINMO LMT TUDOR2


View recent IFR Routes data
Notes



Charts and Procedures

Charts for KSEA
No chart available
Charts for KSMF
No chart available

Ventusky Weather